sensor_id;sensor_type;location;lat;lon;timestamp;P1;durP1;ratioP1;P2;durP2;ratioP2
63943;SDS011;50121;51.218;7.664;2023-08-20T00:02:04;11.38;;;10.38;;
63943;SDS011;50121;51.218;7.664;2023-08-20T00:04:34;11.18;;;10.07;;
63943;SDS011;50121;51.218;7.664;2023-08-20T00:07:03;12.65;;;10.95;;
63943;SDS011;50121;51.218;7.664;2023-08-20T00:09:31;11.35;;;10.30;;
63943;SDS011;50121;51.218;7.664;2023-08-20T00:11:59;11.55;;;10.50;;
63943;SDS011;50121;51.218;7.664;2023-08-20T00:17:15;11.55;;;10.48;;
63943;SDS011;50121;51.218;7.664;2023-08-20T00:19:43;11.25;;;10.25;;
63943;SDS011;50121;51.218;7.664;2023-08-20T00:22:10;11.68;;;10.50;;
63943;SDS011;50121;51.218;7.664;2023-08-20T00:24:38;17.40;;;15.57;;
63943;SDS011;50121;51.218;7.664;2023-08-20T00:27:06;27.20;;;21.33;;
63943;SDS011;50121;51.218;7.664;2023-08-20T00:29:34;16.67;;;13.30;;
63943;SDS011;50121;51.218;7.664;2023-08-20T00:32:01;13.07;;;11.88;;
63943;SDS011;50121;51.218;7.664;2023-08-20T00:34:29;13.65;;;11.23;;
63943;SDS011;50121;51.218;7.664;2023-08-20T00:36:56;11.93;;;10.63;;
63943;SDS011;50121;51.218;7.664;2023-08-20T00:39:24;12.38;;;11.27;;
63943;SDS011;50121;51.218;7.664;2023-08-20T00:41:51;11.77;;;10.57;;
63943;SDS011;50121;51.218;7.664;2023-08-20T00:44:19;11.40;;;10.40;;
63943;SDS011;50121;51.218;7.664;2023-08-20T00:46:47;12.57;;;10.20;;
63943;SDS011;50121;51.218;7.664;2023-08-20T00:49:15;12.25;;;10.63;;
63943;SDS011;50121;51.218;7.664;2023-08-20T00:51:43;11.48;;;10.38;;
63943;SDS011;50121;51.218;7.664;2023-08-20T00:54:12;11.73;;;10.63;;
63943;SDS011;50121;51.218;7.664;2023-08-20T00:56:40;12.25;;;10.98;;
63943;SDS011;50121;51.218;7.664;2023-08-20T00:59:08;11.95;;;10.57;;
63943;SDS011;50121;51.218;7.664;2023-08-20T01:01:35;11.68;;;10.57;;
63943;SDS011;50121;51.218;7.664;2023-08-20T01:04:03;12.13;;;10.93;;
63943;SDS011;50121;51.218;7.664;2023-08-20T01:11:47;11.50;;;10.50;;
63943;SDS011;50121;51.218;7.664;2023-08-20T01:14:16;12.73;;;11.48;;
63943;SDS011;50121;51.218;7.664;2023-08-20T01:16:44;12.38;;;11.18;;
63943;SDS011;50121;51.218;7.664;2023-08-20T01:19:14;34.72;;;29.98;;
63943;SDS011;50121;51.218;7.664;2023-08-20T01:22:00;19.45;;;17.35;;
63943;SDS011;50121;51.218;7.664;2023-08-20T01:29:56;11.80;;;10.73;;
63943;SDS011;50121;51.218;7.664;2023-08-20T01:32:23;12.23;;;10.80;;
63943;SDS011;50121;51.218;7.664;2023-08-20T01:34:52;12.00;;;10.82;;
63943;SDS011;50121;51.218;7.664;2023-08-20T01:37:20;12.35;;;11.15;;
63943;SDS011;50121;51.218;7.664;2023-08-20T01:39:48;12.23;;;10.52;;
63943;SDS011;50121;51.218;7.664;2023-08-20T01:42:16;11.23;;;10.23;;
63943;SDS011;50121;51.218;7.664;2023-08-20T01:44:45;11.68;;;10.68;;
63943;SDS011;50121;51.218;7.664;2023-08-20T01:47:12;12.13;;;10.80;;
63943;SDS011;50121;51.218;7.664;2023-08-20T01:49:42;11.02;;;10.02;;
63943;SDS011;50121;51.218;7.664;2023-08-20T01:52:09;11.60;;;10.40;;
63943;SDS011;50121;51.218;7.664;2023-08-20T01:54:37;11.68;;;10.70;;
63943;SDS011;50121;51.218;7.664;2023-08-20T01:57:05;12.15;;;10.98;;
63943;SDS011;50121;51.218;7.664;2023-08-20T01:59:32;12.30;;;11.20;;
63943;SDS011;50121;51.218;7.664;2023-08-20T02:02:00;12.52;;;11.27;;
63943;SDS011;50121;51.218;7.664;2023-08-20T02:04:28;13.20;;;10.85;;
63943;SDS011;50121;51.218;7.664;2023-08-20T02:06:55;11.55;;;10.43;;
63943;SDS011;50121;51.218;7.664;2023-08-20T02:09:23;10.95;;;9.95;;
63943;SDS011;50121;51.218;7.664;2023-08-20T02:11:51;11.27;;;10.18;;
63943;SDS011;50121;51.218;7.664;2023-08-20T02:14:18;11.70;;;10.63;;
63943;SDS011;50121;51.218;7.664;2023-08-20T02:16:46;10.90;;;9.90;;
63943;SDS011;50121;51.218;7.664;2023-08-20T02:19:14;11.20;;;10.10;;
63943;SDS011;50121;51.218;7.664;2023-08-20T02:21:41;13.23;;;11.18;;
63943;SDS011;50121;51.218;7.664;2023-08-20T02:24:09;11.40;;;10.30;;
63943;SDS011;50121;51.218;7.664;2023-08-20T02:26:37;11.88;;;10.82;;
63943;SDS011;50121;51.218;7.664;2023-08-20T02:29:05;12.68;;;10.38;;
63943;SDS011;50121;51.218;7.664;2023-08-20T02:31:35;10.88;;;9.88;;
63943;SDS011;50121;51.218;7.664;2023-08-20T02:34:03;12.60;;;10.10;;
63943;SDS011;50121;51.218;7.664;2023-08-20T02:36:31;11.90;;;10.73;;
63943;SDS011;50121;51.218;7.664;2023-08-20T02:38:59;13.32;;;10.57;;
63943;SDS011;50121;51.218;7.664;2023-08-20T02:41:26;11.25;;;10.07;;
63943;SDS011;50121;51.218;7.664;2023-08-20T02:43:54;13.32;;;11.93;;
63943;SDS011;50121;51.218;7.664;2023-08-20T02:46:21;12.73;;;11.10;;
63943;SDS011;50121;51.218;7.664;2023-08-20T02:48:49;12.20;;;11.00;;
63943;SDS011;50121;51.218;7.664;2023-08-20T02:51:17;12.65;;;11.23;;
63943;SDS011;50121;51.218;7.664;2023-08-20T02:53:44;12.70;;;11.40;;
63943;SDS011;50121;51.218;7.664;2023-08-20T02:56:12;12.20;;;10.93;;
63943;SDS011;50121;51.218;7.664;2023-08-20T02:58:39;12.07;;;10.88;;
63943;SDS011;50121;51.218;7.664;2023-08-20T03:01:07;11.50;;;10.40;;
63943;SDS011;50121;51.218;7.664;2023-08-20T03:03:44;12.60;;;10.90;;
63943;SDS011;50121;51.218;7.664;2023-08-20T03:06:12;11.80;;;10.65;;
63943;SDS011;50121;51.218;7.664;2023-08-20T03:08:39;11.75;;;10.60;;
63943;SDS011;50121;51.218;7.664;2023-08-20T03:11:07;12.27;;;11.07;;
63943;SDS011;50121;51.218;7.664;2023-08-20T03:13:35;13.32;;;10.48;;
63943;SDS011;50121;51.218;7.664;2023-08-20T03:16:02;11.63;;;10.48;;
63943;SDS011;50121;51.218;7.664;2023-08-20T03:18:30;11.73;;;10.63;;
63943;SDS011;50121;51.218;7.664;2023-08-20T03:20:57;12.93;;;10.95;;
63943;SDS011;50121;51.218;7.664;2023-08-20T03:23:25;12.80;;;11.43;;
63943;SDS011;50121;51.218;7.664;2023-08-20T03:25:52;11.65;;;10.55;;
63943;SDS011;50121;51.218;7.664;2023-08-20T03:28:21;12.00;;;10.82;;
63943;SDS011;50121;51.218;7.664;2023-08-20T03:30:48;11.63;;;10.30;;
63943;SDS011;50121;51.218;7.664;2023-08-20T03:33:18;11.68;;;10.50;;
63943;SDS011;50121;51.218;7.664;2023-08-20T03:35:46;11.73;;;9.98;;
63943;SDS011;50121;51.218;7.664;2023-08-20T03:38:13;11.85;;;10.65;;
63943;SDS011;50121;51.218;7.664;2023-08-20T03:40:41;12.45;;;10.65;;
63943;SDS011;50121;51.218;7.664;2023-08-20T03:43:11;12.90;;;10.95;;
63943;SDS011;50121;51.218;7.664;2023-08-20T03:45:38;11.95;;;10.85;;
63943;SDS011;50121;51.218;7.664;2023-08-20T03:48:06;12.23;;;10.80;;
63943;SDS011;50121;51.218;7.664;2023-08-20T03:50:33;11.65;;;10.60;;
63943;SDS011;50121;51.218;7.664;2023-08-20T03:53:01;11.70;;;10.63;;
63943;SDS011;50121;51.218;7.664;2023-08-20T03:55:28;11.50;;;10.30;;
63943;SDS011;50121;51.218;7.664;2023-08-20T03:57:56;11.45;;;10.35;;
63943;SDS011;50121;51.218;7.664;2023-08-20T04:00:23;11.68;;;10.50;;
63943;SDS011;50121;51.218;7.664;2023-08-20T04:02:53;13.18;;;10.23;;
63943;SDS011;50121;51.218;7.664;2023-08-20T04:05:21;11.82;;;10.63;;
63943;SDS011;50121;51.218;7.664;2023-08-20T04:07:49;13.35;;;10.75;;
63943;SDS011;50121;51.218;7.664;2023-08-20T04:10:20;12.30;;;11.10;;
63943;SDS011;50121;51.218;7.664;2023-08-20T04:12:47;12.50;;;11.25;;
63943;SDS011;50121;51.218;7.664;2023-08-20T04:15:15;11.98;;;10.98;;
63943;SDS011;50121;51.218;7.664;2023-08-20T04:17:42;12.85;;;11.43;;
63943;SDS011;50121;51.218;7.664;2023-08-20T04:20:10;12.52;;;11.27;;
63943;SDS011;50121;51.218;7.664;2023-08-20T04:22:38;14.30;;;11.13;;
63943;SDS011;50121;51.218;7.664;2023-08-20T04:25:06;12.40;;;11.30;;
63943;SDS011;50121;51.218;7.664;2023-08-20T04:27:34;14.10;;;11.25;;
63943;SDS011;50121;51.218;7.664;2023-08-20T04:30:02;11.73;;;10.63;;
63943;SDS011;50121;51.218;7.664;2023-08-20T04:32:31;11.98;;;10.45;;
63943;SDS011;50121;51.218;7.664;2023-08-20T04:35:00;11.93;;;10.80;;
63943;SDS011;50121;51.218;7.664;2023-08-20T04:37:28;11.65;;;10.50;;
63943;SDS011;50121;51.218;7.664;2023-08-20T04:40:01;11.93;;;10.80;;
63943;SDS011;50121;51.218;7.664;2023-08-20T04:42:31;14.25;;;11.77;;
63943;SDS011;50121;51.218;7.664;2023-08-20T04:44:59;12.27;;;11.02;;
63943;SDS011;50121;51.218;7.664;2023-08-20T04:47:27;12.45;;;11.35;;
63943;SDS011;50121;51.218;7.664;2023-08-20T04:49:55;11.73;;;10.57;;
63943;SDS011;50121;51.218;7.664;2023-08-20T04:52:23;11.75;;;10.63;;
63943;SDS011;50121;51.218;7.664;2023-08-20T04:54:50;15.15;;;12.05;;
63943;SDS011;50121;51.218;7.664;2023-08-20T04:57:20;12.57;;;11.20;;
63943;SDS011;50121;51.218;7.664;2023-08-20T04:59:48;12.68;;;11.02;;
63943;SDS011;50121;51.218;7.664;2023-08-20T05:02:23;12.35;;;10.75;;
63943;SDS011;50121;51.218;7.664;2023-08-20T05:04:55;12.03;;;10.90;;
63943;SDS011;50121;51.218;7.664;2023-08-20T05:07:23;13.10;;;11.50;;
63943;SDS011;50121;51.218;7.664;2023-08-20T05:09:51;11.43;;;10.20;;
63943;SDS011;50121;51.218;7.664;2023-08-20T05:12:18;13.38;;;11.23;;
63943;SDS011;50121;51.218;7.664;2023-08-20T05:14:46;12.85;;;11.10;;
63943;SDS011;50121;51.218;7.664;2023-08-20T05:17:14;12.10;;;10.90;;
63943;SDS011;50121;51.218;7.664;2023-08-20T05:19:43;13.68;;;10.80;;
63943;SDS011;50121;51.218;7.664;2023-08-20T05:22:10;15.45;;;11.20;;
63943;SDS011;50121;51.218;7.664;2023-08-20T05:24:38;14.35;;;11.90;;
63943;SDS011;50121;51.218;7.664;2023-08-20T05:29:37;13.00;;;11.70;;
63943;SDS011;50121;51.218;7.664;2023-08-20T05:32:06;12.48;;;11.18;;
63943;SDS011;50121;51.218;7.664;2023-08-20T05:34:33;12.73;;;11.50;;
63943;SDS011;50121;51.218;7.664;2023-08-20T05:37:01;12.80;;;11.55;;
63943;SDS011;50121;51.218;7.664;2023-08-20T05:39:36;13.20;;;11.68;;
63943;SDS011;50121;51.218;7.664;2023-08-20T05:42:05;13.13;;;11.93;;
63943;SDS011;50121;51.218;7.664;2023-08-20T05:44:33;13.43;;;12.13;;
63943;SDS011;50121;51.218;7.664;2023-08-20T05:47:02;12.10;;;10.77;;
63943;SDS011;50121;51.218;7.664;2023-08-20T05:49:30;12.48;;;11.23;;
63943;SDS011;50121;51.218;7.664;2023-08-20T05:51:58;11.68;;;10.40;;
63943;SDS011;50121;51.218;7.664;2023-08-20T05:54:27;12.98;;;11.57;;
63943;SDS011;50121;51.218;7.664;2023-08-20T05:56:57;19.15;;;17.02;;
63943;SDS011;50121;51.218;7.664;2023-08-20T05:59:25;19.52;;;15.48;;
63943;SDS011;50121;51.218;7.664;2023-08-20T06:01:53;14.18;;;11.57;;
63943;SDS011;50121;51.218;7.664;2023-08-20T06:04:21;13.20;;;11.00;;
63943;SDS011;50121;51.218;7.664;2023-08-20T06:06:49;11.85;;;10.68;;
63943;SDS011;50121;51.218;7.664;2023-08-20T06:09:16;12.85;;;10.98;;
63943;SDS011;50121;51.218;7.664;2023-08-20T06:11:44;12.45;;;11.23;;
63943;SDS011;50121;51.218;7.664;2023-08-20T06:14:14;12.18;;;10.90;;
63943;SDS011;50121;51.218;7.664;2023-08-20T06:16:42;13.18;;;11.88;;
63943;SDS011;50121;51.218;7.664;2023-08-20T06:19:10;15.32;;;11.93;;
63943;SDS011;50121;51.218;7.664;2023-08-20T06:21:38;12.10;;;10.90;;
63943;SDS011;50121;51.218;7.664;2023-08-20T06:24:05;11.70;;;10.68;;
63943;SDS011;50121;51.218;7.664;2023-08-20T06:26:33;11.75;;;10.50;;
63943;SDS011;50121;51.218;7.664;2023-08-20T06:29:01;12.25;;;10.70;;
63943;SDS011;50121;51.218;7.664;2023-08-20T06:31:29;12.13;;;10.93;;
63943;SDS011;50121;51.218;7.664;2023-08-20T06:33:56;13.93;;;10.63;;
63943;SDS011;50121;51.218;7.664;2023-08-20T06:36:24;14.27;;;12.43;;
63943;SDS011;50121;51.218;7.664;2023-08-20T06:38:52;21.73;;;14.43;;
63943;SDS011;50121;51.218;7.664;2023-08-20T06:41:19;13.20;;;11.80;;
63943;SDS011;50121;51.218;7.664;2023-08-20T06:43:47;12.45;;;11.25;;
63943;SDS011;50121;51.218;7.664;2023-08-20T06:46:14;13.38;;;12.00;;
63943;SDS011;50121;51.218;7.664;2023-08-20T06:48:42;14.30;;;12.73;;
63943;SDS011;50121;51.218;7.664;2023-08-20T06:51:18;26.10;;;21.15;;
63943;SDS011;50121;51.218;7.664;2023-08-20T06:53:46;12.60;;;11.35;;
63943;SDS011;50121;51.218;7.664;2023-08-20T06:56:13;12.88;;;11.57;;
63943;SDS011;50121;51.218;7.664;2023-08-20T06:58:41;13.32;;;11.43;;
63943;SDS011;50121;51.218;7.664;2023-08-20T07:01:09;12.95;;;11.18;;
63943;SDS011;50121;51.218;7.664;2023-08-20T07:03:42;12.40;;;11.20;;
63943;SDS011;50121;51.218;7.664;2023-08-20T07:06:10;15.93;;;14.40;;
63943;SDS011;50121;51.218;7.664;2023-08-20T07:08:40;13.93;;;12.57;;
63943;SDS011;50121;51.218;7.664;2023-08-20T07:11:08;14.40;;;12.90;;
63943;SDS011;50121;51.218;7.664;2023-08-20T07:13:36;14.60;;;13.05;;
63943;SDS011;50121;51.218;7.664;2023-08-20T07:16:03;13.65;;;12.27;;
63943;SDS011;50121;51.218;7.664;2023-08-20T07:18:31;15.20;;;12.18;;
63943;SDS011;50121;51.218;7.664;2023-08-20T07:20:59;13.27;;;11.88;;
63943;SDS011;50121;51.218;7.664;2023-08-20T07:23:26;16.10;;;12.98;;
63943;SDS011;50121;51.218;7.664;2023-08-20T07:26:07;13.10;;;11.73;;
63943;SDS011;50121;51.218;7.664;2023-08-20T07:28:35;14.73;;;13.15;;
63943;SDS011;50121;51.218;7.664;2023-08-20T07:31:22;13.25;;;11.82;;
63943;SDS011;50121;51.218;7.664;2023-08-20T07:33:52;15.23;;;13.02;;
63943;SDS011;50121;51.218;7.664;2023-08-20T07:36:22;16.55;;;13.82;;
63943;SDS011;50121;51.218;7.664;2023-08-20T07:38:53;18.40;;;14.57;;
63943;SDS011;50121;51.218;7.664;2023-08-20T07:41:21;18.73;;;14.20;;
63943;SDS011;50121;51.218;7.664;2023-08-20T07:43:49;21.15;;;17.48;;
63943;SDS011;50121;51.218;7.664;2023-08-20T07:46:16;19.75;;;15.48;;
63943;SDS011;50121;51.218;7.664;2023-08-20T07:48:44;27.58;;;19.75;;
63943;SDS011;50121;51.218;7.664;2023-08-20T07:51:11;25.48;;;17.88;;
63943;SDS011;50121;51.218;7.664;2023-08-20T07:53:39;27.63;;;21.38;;
63943;SDS011;50121;51.218;7.664;2023-08-20T07:56:07;24.42;;;17.77;;
63943;SDS011;50121;51.218;7.664;2023-08-20T07:58:35;21.75;;;17.30;;
63943;SDS011;50121;51.218;7.664;2023-08-20T08:01:02;22.80;;;18.10;;
63943;SDS011;50121;51.218;7.664;2023-08-20T08:03:30;23.60;;;17.70;;
63943;SDS011;50121;51.218;7.664;2023-08-20T08:05:58;21.33;;;17.20;;
63943;SDS011;50121;51.218;7.664;2023-08-20T08:08:25;22.42;;;17.42;;
63943;SDS011;50121;51.218;7.664;2023-08-20T08:10:53;22.00;;;17.27;;
63943;SDS011;50121;51.218;7.664;2023-08-20T08:13:21;21.95;;;16.33;;
63943;SDS011;50121;51.218;7.664;2023-08-20T08:15:49;19.58;;;16.55;;
63943;SDS011;50121;51.218;7.664;2023-08-20T08:18:18;17.90;;;14.90;;
63943;SDS011;50121;51.218;7.664;2023-08-20T08:20:46;19.42;;;16.63;;
63943;SDS011;50121;51.218;7.664;2023-08-20T08:23:13;18.45;;;16.27;;
63943;SDS011;50121;51.218;7.664;2023-08-20T08:25:41;19.00;;;15.15;;
63943;SDS011;50121;51.218;7.664;2023-08-20T08:28:09;17.15;;;13.55;;
63943;SDS011;50121;51.218;7.664;2023-08-20T08:30:37;13.52;;;12.13;;
63943;SDS011;50121;51.218;7.664;2023-08-20T08:33:05;15.43;;;13.63;;
63943;SDS011;50121;51.218;7.664;2023-08-20T08:35:32;16.77;;;14.98;;
63943;SDS011;50121;51.218;7.664;2023-08-20T08:38:00;15.32;;;13.52;;
63943;SDS011;50121;51.218;7.664;2023-08-20T08:40:30;12.25;;;11.10;;
63943;SDS011;50121;51.218;7.664;2023-08-20T08:42:57;11.75;;;10.55;;
63943;SDS011;50121;51.218;7.664;2023-08-20T08:45:25;11.15;;;10.15;;
63943;SDS011;50121;51.218;7.664;2023-08-20T08:47:54;10.80;;;9.70;;
63943;SDS011;50121;51.218;7.664;2023-08-20T08:50:22;12.48;;;11.20;;
63943;SDS011;50121;51.218;7.664;2023-08-20T08:52:50;13.50;;;12.05;;
63943;SDS011;50121;51.218;7.664;2023-08-20T08:55:19;11.75;;;10.68;;
63943;SDS011;50121;51.218;7.664;2023-08-20T08:57:47;11.93;;;10.73;;
63943;SDS011;50121;51.218;7.664;2023-08-20T09:00:14;11.82;;;10.70;;
63943;SDS011;50121;51.218;7.664;2023-08-20T09:02:49;11.45;;;10.45;;
63943;SDS011;50121;51.218;7.664;2023-08-20T09:05:20;13.32;;;12.02;;
63943;SDS011;50121;51.218;7.664;2023-08-20T09:07:48;15.32;;;13.10;;
63943;SDS011;50121;51.218;7.664;2023-08-20T09:10:24;12.68;;;11.38;;
63943;SDS011;50121;51.218;7.664;2023-08-20T09:12:54;12.32;;;11.23;;
63943;SDS011;50121;51.218;7.664;2023-08-20T09:15:33;12.10;;;10.93;;
63943;SDS011;50121;51.218;7.664;2023-08-20T09:18:02;12.35;;;11.30;;
63943;SDS011;50121;51.218;7.664;2023-08-20T09:20:34;12.05;;;10.95;;
63943;SDS011;50121;51.218;7.664;2023-08-20T09:23:01;12.57;;;11.35;;
63943;SDS011;50121;51.218;7.664;2023-08-20T09:25:29;12.75;;;11.55;;
63943;SDS011;50121;51.218;7.664;2023-08-20T09:27:57;18.23;;;16.33;;
63943;SDS011;50121;51.218;7.664;2023-08-20T09:30:25;13.60;;;12.30;;
63943;SDS011;50121;51.218;7.664;2023-08-20T09:33:06;12.63;;;11.48;;
63943;SDS011;50121;51.218;7.664;2023-08-20T09:35:34;13.57;;;12.25;;
63943;SDS011;50121;51.218;7.664;2023-08-20T09:38:05;13.48;;;11.68;;
63943;SDS011;50121;51.218;7.664;2023-08-20T09:40:32;11.93;;;10.73;;
63943;SDS011;50121;51.218;7.664;2023-08-20T09:43:00;12.00;;;10.75;;
63943;SDS011;50121;51.218;7.664;2023-08-20T09:45:28;12.50;;;11.30;;
63943;SDS011;50121;51.218;7.664;2023-08-20T09:47:58;12.52;;;11.32;;
63943;SDS011;50121;51.218;7.664;2023-08-20T09:50:26;12.57;;;11.32;;
63943;SDS011;50121;51.218;7.664;2023-08-20T09:52:58;12.05;;;10.95;;
63943;SDS011;50121;51.218;7.664;2023-08-20T09:55:29;12.13;;;10.93;;
63943;SDS011;50121;51.218;7.664;2023-08-20T09:57:57;12.23;;;11.02;;
63943;SDS011;50121;51.218;7.664;2023-08-20T10:00:26;12.80;;;11.50;;
63943;SDS011;50121;51.218;7.664;2023-08-20T10:02:55;12.77;;;11.52;;
63943;SDS011;50121;51.218;7.664;2023-08-20T10:05:23;12.18;;;11.02;;
63943;SDS011;50121;51.218;7.664;2023-08-20T10:07:51;12.80;;;11.57;;
63943;SDS011;50121;51.218;7.664;2023-08-20T10:10:18;12.48;;;11.27;;
63943;SDS011;50121;51.218;7.664;2023-08-20T10:12:46;11.48;;;10.48;;
63943;SDS011;50121;51.218;7.664;2023-08-20T10:15:14;12.10;;;10.82;;
63943;SDS011;50121;51.218;7.664;2023-08-20T10:17:43;11.80;;;10.77;;
63943;SDS011;50121;51.218;7.664;2023-08-20T10:20:12;12.48;;;11.27;;
63943;SDS011;50121;51.218;7.664;2023-08-20T10:22:42;13.65;;;12.25;;
63943;SDS011;50121;51.218;7.664;2023-08-20T10:25:10;11.43;;;9.82;;
63943;SDS011;50121;51.218;7.664;2023-08-20T10:27:40;10.73;;;9.73;;
63943;SDS011;50121;51.218;7.664;2023-08-20T10:30:09;10.85;;;9.75;;
63943;SDS011;50121;51.218;7.664;2023-08-20T10:32:45;10.88;;;9.98;;
63943;SDS011;50121;51.218;7.664;2023-08-20T10:35:56;13.13;;;9.80;;
63943;SDS011;50121;51.218;7.664;2023-08-20T10:40:57;12.73;;;9.80;;
63943;SDS011;50121;51.218;7.664;2023-08-20T10:46:02;11.20;;;10.10;;
63943;SDS011;50121;51.218;7.664;2023-08-20T10:48:32;12.77;;;11.50;;
63943;SDS011;50121;51.218;7.664;2023-08-20T10:51:46;15.93;;;14.48;;
63943;SDS011;50121;51.218;7.664;2023-08-20T10:59:14;10.98;;;9.88;;
63943;SDS011;50121;51.218;7.664;2023-08-20T11:01:43;10.88;;;9.77;;
63943;SDS011;50121;51.218;7.664;2023-08-20T11:04:10;12.23;;;11.00;;
63943;SDS011;50121;51.218;7.664;2023-08-20T11:06:38;11.00;;;10.10;;
63943;SDS011;50121;51.218;7.664;2023-08-20T11:09:06;11.48;;;10.38;;
63943;SDS011;50121;51.218;7.664;2023-08-20T11:11:34;11.98;;;10.52;;
63943;SDS011;50121;51.218;7.664;2023-08-20T11:14:05;11.65;;;10.65;;
63943;SDS011;50121;51.218;7.664;2023-08-20T11:16:36;12.13;;;10.93;;
63943;SDS011;50121;51.218;7.664;2023-08-20T11:19:04;10.88;;;9.88;;
63943;SDS011;50121;51.218;7.664;2023-08-20T11:21:35;12.38;;;11.10;;
63943;SDS011;50121;51.218;7.664;2023-08-20T11:24:04;12.38;;;10.38;;
63943;SDS011;50121;51.218;7.664;2023-08-20T11:26:33;15.45;;;13.77;;
63943;SDS011;50121;51.218;7.664;2023-08-20T11:29:07;11.38;;;10.23;;
63943;SDS011;50121;51.218;7.664;2023-08-20T11:31:35;11.02;;;10.02;;
63943;SDS011;50121;51.218;7.664;2023-08-20T11:34:03;14.77;;;13.00;;
63943;SDS011;50121;51.218;7.664;2023-08-20T11:36:33;13.50;;;11.77;;
63943;SDS011;50121;51.218;7.664;2023-08-20T11:39:02;11.73;;;10.68;;
63943;SDS011;50121;51.218;7.664;2023-08-20T11:41:30;10.85;;;9.90;;
63943;SDS011;50121;51.218;7.664;2023-08-20T11:44:05;13.73;;;12.55;;
63943;SDS011;50121;51.218;7.664;2023-08-20T11:46:32;10.38;;;9.48;;
63943;SDS011;50121;51.218;7.664;2023-08-20T11:51:28;10.23;;;9.50;;
63943;SDS011;50121;51.218;7.664;2023-08-20T11:53:57;10.45;;;9.45;;
63943;SDS011;50121;51.218;7.664;2023-08-20T11:56:24;10.05;;;9.15;;
63943;SDS011;50121;51.218;7.664;2023-08-20T11:58:58;11.02;;;9.88;;
63943;SDS011;50121;51.218;7.664;2023-08-20T12:01:29;11.10;;;9.90;;
63943;SDS011;50121;51.218;7.664;2023-08-20T12:04:01;12.27;;;11.07;;
63943;SDS011;50121;51.218;7.664;2023-08-20T12:08:58;11.13;;;10.18;;
63943;SDS011;50121;51.218;7.664;2023-08-20T12:11:28;11.23;;;10.32;;
63943;SDS011;50121;51.218;7.664;2023-08-20T12:13:56;10.30;;;9.35;;
63943;SDS011;50121;51.218;7.664;2023-08-20T12:16:23;11.32;;;10.20;;
63943;SDS011;50121;51.218;7.664;2023-08-20T12:18:51;10.88;;;9.88;;
63943;SDS011;50121;51.218;7.664;2023-08-20T12:21:19;10.88;;;9.90;;
63943;SDS011;50121;51.218;7.664;2023-08-20T12:23:46;11.57;;;10.68;;
63943;SDS011;50121;51.218;7.664;2023-08-20T12:26:14;11.68;;;10.68;;
63943;SDS011;50121;51.218;7.664;2023-08-20T12:28:42;11.57;;;10.38;;
63943;SDS011;50121;51.218;7.664;2023-08-20T12:31:09;11.13;;;10.02;;
63943;SDS011;50121;51.218;7.664;2023-08-20T12:33:37;10.60;;;9.60;;
63943;SDS011;50121;51.218;7.664;2023-08-20T12:36:05;10.70;;;9.90;;
63943;SDS011;50121;51.218;7.664;2023-08-20T12:38:32;10.38;;;9.35;;
63943;SDS011;50121;51.218;7.664;2023-08-20T12:41:01;10.48;;;9.50;;
63943;SDS011;50121;51.218;7.664;2023-08-20T12:43:30;10.13;;;9.32;;
63943;SDS011;50121;51.218;7.664;2023-08-20T12:45:58;10.60;;;9.70;;
63943;SDS011;50121;51.218;7.664;2023-08-20T12:48:25;9.55;;;8.73;;
63943;SDS011;50121;51.218;7.664;2023-08-20T12:50:53;10.60;;;9.48;;
63943;SDS011;50121;51.218;7.664;2023-08-20T12:53:21;11.45;;;10.45;;
63943;SDS011;50121;51.218;7.664;2023-08-20T12:55:49;10.73;;;9.82;;
63943;SDS011;50121;51.218;7.664;2023-08-20T12:58:19;10.43;;;9.25;;
63943;SDS011;50121;51.218;7.664;2023-08-20T13:00:47;9.63;;;8.82;;
63943;SDS011;50121;51.218;7.664;2023-08-20T13:03:15;10.15;;;9.25;;
63943;SDS011;50121;51.218;7.664;2023-08-20T13:05:42;9.57;;;8.77;;
63943;SDS011;50121;51.218;7.664;2023-08-20T13:08:10;10.07;;;9.18;;
63943;SDS011;50121;51.218;7.664;2023-08-20T13:10:39;10.55;;;9.70;;
63943;SDS011;50121;51.218;7.664;2023-08-20T13:13:10;9.57;;;8.80;;
63943;SDS011;50121;51.218;7.664;2023-08-20T13:15:38;11.75;;;10.65;;
63943;SDS011;50121;51.218;7.664;2023-08-20T13:18:06;10.90;;;9.80;;
63943;SDS011;50121;51.218;7.664;2023-08-20T13:20:34;10.50;;;9.75;;
63943;SDS011;50121;51.218;7.664;2023-08-20T13:23:01;10.20;;;9.32;;
63943;SDS011;50121;51.218;7.664;2023-08-20T13:25:29;10.32;;;9.52;;
63943;SDS011;50121;51.218;7.664;2023-08-20T13:27:57;10.65;;;9.63;;
63943;SDS011;50121;51.218;7.664;2023-08-20T13:30:24;9.73;;;8.93;;
63943;SDS011;50121;51.218;7.664;2023-08-20T13:32:55;10.18;;;9.38;;
63943;SDS011;50121;51.218;7.664;2023-08-20T13:35:22;10.40;;;9.57;;
63943;SDS011;50121;51.218;7.664;2023-08-20T13:37:50;9.77;;;9.02;;
63943;SDS011;50121;51.218;7.664;2023-08-20T13:40:19;9.88;;;9.15;;
63943;SDS011;50121;51.218;7.664;2023-08-20T13:42:48;11.18;;;10.20;;
63943;SDS011;50121;51.218;7.664;2023-08-20T13:45:16;10.82;;;9.82;;
63943;SDS011;50121;51.218;7.664;2023-08-20T13:47:43;10.85;;;9.95;;
63943;SDS011;50121;51.218;7.664;2023-08-20T13:50:13;10.30;;;9.40;;
63943;SDS011;50121;51.218;7.664;2023-08-20T13:52:40;10.45;;;9.45;;
63943;SDS011;50121;51.218;7.664;2023-08-20T13:55:08;10.10;;;9.38;;
63943;SDS011;50121;51.218;7.664;2023-08-20T13:57:41;9.82;;;8.88;;
63943;SDS011;50121;51.218;7.664;2023-08-20T14:00:08;10.20;;;9.38;;
63943;SDS011;50121;51.218;7.664;2023-08-20T14:02:39;11.00;;;10.20;;
63943;SDS011;50121;51.218;7.664;2023-08-20T14:05:06;10.77;;;9.90;;
63943;SDS011;50121;51.218;7.664;2023-08-20T14:07:34;11.55;;;10.38;;
63943;SDS011;50121;51.218;7.664;2023-08-20T14:10:02;10.80;;;9.85;;
63943;SDS011;50121;51.218;7.664;2023-08-20T14:12:33;10.23;;;9.52;;
63943;SDS011;50121;51.218;7.664;2023-08-20T14:15:03;11.07;;;9.93;;
63943;SDS011;50121;51.218;7.664;2023-08-20T14:17:31;10.55;;;9.65;;
63943;SDS011;50121;51.218;7.664;2023-08-20T14:19:58;10.75;;;9.85;;
63943;SDS011;50121;51.218;7.664;2023-08-20T14:22:26;10.73;;;9.82;;
63943;SDS011;50121;51.218;7.664;2023-08-20T14:24:54;10.75;;;9.75;;
63943;SDS011;50121;51.218;7.664;2023-08-20T14:27:21;38.03;;;28.20;;
63943;SDS011;50121;51.218;7.664;2023-08-20T14:29:49;18.17;;;16.38;;
63943;SDS011;50121;51.218;7.664;2023-08-20T14:32:16;22.88;;;18.38;;
63943;SDS011;50121;51.218;7.664;2023-08-20T14:34:44;27.73;;;19.27;;
63943;SDS011;50121;51.218;7.664;2023-08-20T14:37:12;18.38;;;16.17;;
63943;SDS011;50121;51.218;7.664;2023-08-20T14:39:40;35.95;;;27.30;;
63943;SDS011;50121;51.218;7.664;2023-08-20T14:42:07;55.78;;;38.70;;
63943;SDS011;50121;51.218;7.664;2023-08-20T14:44:35;22.60;;;18.75;;
63943;SDS011;50121;51.218;7.664;2023-08-20T14:47:02;13.88;;;12.48;;
63943;SDS011;50121;51.218;7.664;2023-08-20T14:49:31;23.05;;;20.85;;
63943;SDS011;50121;51.218;7.664;2023-08-20T14:51:58;11.80;;;10.40;;
63943;SDS011;50121;51.218;7.664;2023-08-20T14:54:32;10.48;;;9.77;;
63943;SDS011;50121;51.218;7.664;2023-08-20T14:56:59;11.30;;;10.50;;
63943;SDS011;50121;51.218;7.664;2023-08-20T14:59:27;11.50;;;10.73;;
63943;SDS011;50121;51.218;7.664;2023-08-20T15:01:55;11.77;;;11.05;;
63943;SDS011;50121;51.218;7.664;2023-08-20T15:04:23;12.57;;;11.50;;